• Join FlightAware (Why Join?)
  • Login
  • US Flag 
10:43PM EDT


 

Airport Tracker/Info


-or-


 

Live Flight TrackerFlight Track Log ✈ EJM19 ✈ 02-Jul-2013 ✈ KTEB - MRLB / LIR

Flight Track Log - Related Links

Times and Time Zones

All times are in EDT time to prevent confusion due to time zone crossing. See the EJM19 flight status page for this flight to view local times or setup timezone preferences in your user account.

Time Position Orientation Groundspeed Altitude Reporting Facility
EDT Latitude Longitude Course Direction KTS MPH feet Rate Location/Type
09:38AM 40.8000 -74.0667 237° Southwest 209 241 1,800  Level New York TRACON
09:39AM 40.7667 -74.1333 237° Southwest 242 278 3,500 1,860 Climbing New York TRACON
09:40AM 40.7000 -74.1667 201° Southwest 247 284 5,600 1,200 Climbing New York TRACON
09:41AM 40.6333 -74.2167 210° Southwest 273 314 6,000 180 Climbing New York TRACON
09:42AM 40.5833 -74.2500 207° Southwest 256 295 6,000  Level New York TRACON
09:44AM 40.4628 -74.2353 175° South 250 288 6,000  Level New York Center
09:45AM 40.3950 -74.2019 159° South 262 302 6,000 1,020 Level New York Center
09:46AM 40.3189 -74.1736 164° South 274 315 8,100 2,520 Climbing New York Center
09:47AM 40.2519 -74.1811 185° South 274 315 11,000 2,460 Climbing New York Center
09:48AM 40.1594 -74.2067 192° South 302 348 13,100 2,280 Climbing New York Center
09:49AM 40.0669 -74.2372 194° South 332 382 15,600 2,280 Climbing New York Center
09:50AM 39.9958 -74.3094 218° Southwest 335 386 17,800 1,740 Climbing New York Center
09:51AM 39.9550 -74.4211 245° Southwest 336 387 19,200 1,200 Climbing New York Center
09:52AM 39.9094 -74.5433 244° Southwest 364 419 20,200 900 Climbing New York Center
09:54AM 39.7875 -74.7436 232° Southwest 348 400 22,100 1,080 Climbing Washington Center
09:55AM 39.6881 -74.8231 212° Southwest 368 423 23,600 1,380 Climbing Washington Center
09:56AM 39.6072 -74.8806 209° Southwest 380 437 25,000 1,380 Climbing Washington Center
09:57AM 39.5200 -74.9458 210° Southwest 375 432 26,400 1,320 Climbing Washington Center
09:58AM 39.4392 -74.9978 206° Southwest 354 407 27,600 1,140 Climbing Washington Center
09:59AM 39.3581 -75.0467 205° Southwest 335 386 28,800 1,200 Climbing Washington Center
10:00AM 39.2750 -75.0983 206° Southwest 330 380 30,000 1,200 Climbing Washington Center
10:01AM 39.1875 -75.1525 206° Southwest 340 391 31,200 1,140 Climbing Washington Center
10:02AM 39.0961 -75.2064 205° Southwest 352 405 32,400 1,260 Climbing Washington Center
10:03AM 39.0067 -75.2603 205° Southwest 358 412 33,800 1,380 Climbing Washington Center
10:04AM 38.9150 -75.3142 205° Southwest 363 418 35,200 1,440 Climbing Washington Center
10:05AM 38.8275 -75.3678 206° Southwest 363 418 36,700 1,320 Climbing Washington Center
10:06AM 38.7381 -75.4186 204° Southwest 358 412 37,900 600 Climbing Washington Center
10:07AM 38.6506 -75.4747 207° Southwest 358 412 38,000  Climbing Washington Center
10:08AM 38.5547 -75.5306 204° Southwest 369 425 38,000  Level Washington Center
10:09AM 38.4547 -75.5892 205° Southwest 382 440 38,000  Level Washington Center
10:10AM 38.3525 -75.6472 204° Southwest 393 452 38,000 420 Level Washington Center
10:11AM 38.2461 -75.7081 204° Southwest 405 466 38,900 900 Climbing Washington Center
10:12AM 38.1481 -75.7661 205° Southwest 405 466 39,900 540 Climbing Washington Center
10:13AM 38.0458 -75.8264 205° Southwest 399 459 40,000  Climbing Washington Center
10:14AM 37.9456 -75.8842 204° Southwest 399 459 40,000  Level Washington Center
10:15AM 37.8411 -75.9442 204° Southwest 405 466 40,000 120 Level Washington Center
10:16AM 37.7428 -76.0119 209° Southwest 405 466 40,300 480 Climbing Washington Center
10:17AM 37.6425 -76.0692 204° Southwest 405 466 41,000 300 Climbing Washington Center
10:18AM 37.5422 -76.1261 204° Southwest 405 466 41,000  Level Washington Center
10:19AM 37.4356 -76.1803 202° Southwest 405 466 41,000  Level Washington Center
10:20AM 37.3331 -76.2369 204° Southwest 405 466 41,000 240 Level Washington Center
10:21AM 37.2306 -76.2961 205° Southwest 405 466 41,500 540 Climbing Washington Center
10:22AM 37.1300 -76.3525 204° Southwest 399 459 42,200 600 Climbing Washington Center
10:23AM 37.0336 -76.4061 204° Southwest 399 459 42,800 360 Climbing Washington Center
10:24AM 36.9353 -76.4625 205° Southwest 394 453 43,000 60 Climbing Washington Center
10:25AM 36.8389 -76.5158 204° Southwest 389 448 43,000  Level Washington Center
10:26AM 36.7403 -76.5742 205° Southwest 384 442 43,000  Level Washington Center
10:27AM 36.6314 -76.6403 206° Southwest 384 442 43,000  Level Washington Center
10:28AM 36.5328 -76.6983 205° Southwest 384 442 43,000  Level Washington Center
10:29AM 36.4322 -76.7511 203° Southwest 390 449 43,000  Level Washington Center
10:30AM 36.3314 -76.8039 203° Southwest 395 455 43,000  Level Washington Center
10:31AM 36.2308 -76.8589 204° Southwest 400 460 43,000  Level Washington Center
10:32AM 36.1300 -76.9139 204° Southwest 400 460 43,000  Level Washington Center
10:33AM 36.0314 -76.9686 204° Southwest 395 455 43,000  Level Washington Center
10:34AM 35.9286 -77.0053 196° South 395 455 43,000  Level Washington Center
10:35AM 35.8217 -77.0469 198° South 390 449 43,000  Level Washington Center
10:36AM 35.7211 -77.0836 196° South 390 449 43,000  Level Washington Center
10:37AM 35.6225 -77.1253 199° South 384 442 43,000  Level Washington Center
10:38AM 35.5178 -77.1639 197° South 384 442 43,000  Level Washington Center
10:39AM 35.4128 -77.2028 197° South 389 448 43,000  Level Washington Center
10:40AM 35.3081 -77.2439 198° South 389 448 43,000  Level Washington Center
10:41AM 35.2031 -77.2825 197° South 394 453 43,000  Level Washington Center
10:42AM 35.1003 -77.3233 198° South 394 453 43,000  Level Washington Center
10:43AM 34.9933 -77.3617 196° South 394 453 43,000  Level Washington Center
10:44AM 34.8883 -77.4000 197° South 399 459 43,000  Level Washington Center
10:45AM 34.7981 -77.4408 200° South 399 459 43,000  Level Washington Center
10:46AM 34.6931 -77.4789 197° South 399 459 43,000  Level Washington Center
10:47AM 34.5861 -77.5194 197° South 399 459 43,000  Level Washington Center
10:48AM 34.4811 -77.5572 197° South 399 459 43,000  Level Washington Center
10:49AM 34.3742 -77.5975 197° South 399 459 43,000  Level Washington Center
10:50AM 34.2692 -77.6325 195° South 404 465 43,000  Level Washington Center
10:52AM 33.9772 -77.7392 197° South 419 482 43,000  Level Jacksonville Center
10:53AM 33.8581 -77.7836 197° South 411 473 43,000  Level Jacksonville Center
10:54AM 33.7533 -77.8244 198° South 406 467 43,000  Level Jacksonville Center
10:55AM 33.6442 -77.8608 196° South 401 461 43,000  Level Jacksonville Center
10:56AM 33.5394 -77.9017 198° South 401 461 43,000  Level Jacksonville Center
10:57AM 33.4325 -77.9400 197° South 401 461 43,000  Level Jacksonville Center
10:58AM 33.3256 -77.9808 198° South 401 461 43,000  Level Jacksonville Center
10:59AM 33.2189 -78.0264 200° South 401 461 43,000  Level Jacksonville Center
11:00AM 33.1139 -78.0667 198° South 401 461 43,000  Level Jacksonville Center
11:01AM 33.0069 -78.1072 198° South 401 461 43,000  Level Jacksonville Center
11:02AM 32.9000 -78.1500 199° South 401 461 43,000  Level Jacksonville Center
11:03AM 32.7950 -78.1900 198° South 401 461 43,000  Level Jacksonville Center
11:04AM 32.6881 -78.2328 199° South 401 461 43,000  Level Jacksonville Center
11:05AM 32.5811 -78.2728 197° South 401 461 43,000  Level Jacksonville Center
11:06AM 32.4742 -78.3150 198° South 401 461 43,000  Level Jacksonville Center
11:07AM 32.3672 -78.3572 198° South 401 461 43,000  Level Jacksonville Center
11:08AM 32.2603 -78.4019 199° South 401 461 43,000  Level Jacksonville Center
11:09AM 32.1511 -78.4442 198° South 406 467 43,000  Level Jacksonville Center
11:10AM 32.0439 -78.4836 197° South 406 467 43,000  Level Jacksonville Center
11:11AM 31.9369 -78.5278 199° South 406 467 43,000  Level Jacksonville Center
11:12AM 31.8275 -78.5672 197° South 412 474 43,000  Level Jacksonville Center
11:13AM 31.7225 -78.6064 198° South 412 474 43,000  Level Jacksonville Center
11:14AM 31.6092 -78.6506 198° South 412 474 43,000  Level Jacksonville Center
11:15AM 31.5019 -78.6897 197° South 403 464 43,000  Level Jacksonville Center
11:16AM 31.3906 -78.7336 199° South 417 480 43,000  Level Jacksonville Center
11:17AM 31.2814 -78.7750 198° South 416 479 43,000  Level Jacksonville Center
11:18AM 31.1700 -78.8186 199° South 421 484 43,000  Level Jacksonville Center
11:19AM 31.0603 -78.8475 193° South 421 484 43,000  Level Jacksonville Center
11:20AM 30.9700 -78.8928 203° Southwest 416 479 43,000  Level Jacksonville Center
11:21AM 30.8586 -78.9361 198° South 411 473 43,000  Level Jacksonville Center
11:22AM 30.7533 -78.9744 197° South 416 479 43,000  Level Jacksonville Center
11:23AM 30.6439 -79.0175 199° South 421 484 43,000  Level Jacksonville Center
11:24AM 30.5261 -79.0583 197° South 421 484 43,000  Level Jacksonville Center
11:25AM 30.4611 -79.0811 197° South 424 488 43,000  Level Miami Center
11:26AM 30.3561 -79.1197 198° South 415 478 43,000  Level Miami Center
11:27AM 30.2450 -79.1631 199° South 415 478 43,000  Level Miami Center
11:28AM 30.1278 -79.2014 196° South 427 491 43,000  Level Miami Center
11:29AM 30.0186 -79.2444 199° South 427 491 43,000  Level Miami Center
11:30AM 29.9136 -79.2875 200° South 421 484 43,000  Level Miami Center
11:31AM 29.8044 -79.3331 200° South 421 484 43,000  Level Miami Center
11:32AM 29.6933 -79.3711 197° South 421 484 43,000  Level Miami Center
11:33AM 29.5800 -79.4089 196° South 421 484 43,000  Level Miami Center
11:34AM 29.4728 -79.4542 200° South 426 490 43,000  Level Miami Center
11:35AM 29.3575 -79.4894 195° South 426 490 43,000  Level Miami Center
11:36AM 29.2461 -79.5272 196° South 426 490 43,000  Level Miami Center
11:37AM 29.1347 -79.5697 198° South 426 490 43,000  Level Miami Center
11:38AM 29.0233 -79.6097 197° South 426 490 43,000  Level Miami Center
11:39AM 28.9164 -79.6472 197° South 426 490 43,000  Level Miami Center
11:40AM 28.8050 -79.6872 197° South 421 484 43,000  Level Miami Center
11:41AM 28.6936 -79.7269 197° South 421 484 43,000  Level Miami Center
11:42AM 28.5842 -79.7667 198° South 426 490 43,000  Level Miami Center
11:43AM 28.4769 -79.8039 197° South 426 490 43,000  Level Miami Center
11:44AM 28.3656 -79.8436 197° South 426 490 43,000  Level Miami Center
11:45AM 28.2564 -79.8831 198° South 426 490 43,000  Level Miami Center
11:46AM 28.1344 -79.9244 197° South 426 490 43,000  Level Miami Center
11:47AM 28.0356 -79.9619 199° South 426 490 43,000  Level Miami Center
11:48AM 27.9239 -79.9989 196° South 426 490 43,000  Level Miami Center
11:49AM 27.8106 -80.0356 196° South 432 497 43,000  Level Miami Center
11:50AM 27.6989 -80.0747 197° South 427 491 43,000  Level Miami Center
11:51AM 27.5875 -80.1136 197° South 422 486 43,000  Level Miami Center
11:52AM 27.4758 -80.1528 197° South 422 486 43,000  Level Miami Center
11:53AM 27.3664 -80.1939 198° South 427 491 43,000  Level Miami Center
11:54AM 27.2547 -80.2328 197° South 427 491 43,000  Level Miami Center
11:55AM 27.1328 -80.2758 197° South 427 491 43,000  Level Miami Center
11:56AM 27.0250 -80.3242 202° Southwest 427 491 43,000 180 Level Miami Center
11:57AM 26.9314 -80.3981 215° Southwest 421 484 43,400 600 Climbing Miami Center
11:58AM 26.8400 -80.4653 213° Southwest 416 479 44,200 660 Climbing Miami Center
11:59AM 26.7506 -80.5322 214° Southwest 402 463 44,800 360 Climbing Miami Center
12:00PM 26.6717 -80.5950 215° Southwest 395 455 45,000 60 Climbing Miami Center
12:01PM 26.5678 -80.6611 210° Southwest 395 455 45,000  Level Miami Center
12:02PM 26.4728 -80.6906 196° South 395 455 45,000  Level Miami Center
12:03PM 26.3531 -80.7192 192° South 400 460 45,000  Level Miami Center
12:04PM 26.2522 -80.7436 192° South 405 466 45,000  Level Miami Center
12:05PM 26.1325 -80.7700 191° South 405 466 45,000  Level Miami Center
12:06PM 26.0211 -80.7986 193° South 410 472 45,000  Level Miami Center
12:07PM 25.9056 -80.8247 191° South 415 478 45,000  Level Miami Center
12:08PM 25.7900 -80.8511 192° South 420 483 45,000  Level Miami Center
12:09PM 25.6742 -80.8794 192° South 420 483 45,000  Level Miami Center
12:10PM 25.5608 -80.9056 192° South 420 483 45,000  Level Miami Center
12:11PM 25.4556 -80.9297 192° South 425 489 45,000  Level Miami Center
12:12PM 25.3400 -80.9556 191° South 425 489 45,000  Level Miami Center
12:13PM 25.2244 -80.9817 192° South 425 489 45,000  Level Miami Center
12:14PM 25.1089 -81.0075 191° South 425 489 45,000  Level Miami Center
12:15PM 24.9933 -81.0336 192° South 430 495 45,000  Level Miami Center
12:16PM 24.8817 -81.0639 194° South 430 495 45,000  Level Miami Center
12:17PM 24.7639 -81.0875 190° South 430 495 45,000  Level Miami Center
12:18PM 24.6464 -81.1064 188° South 430 495 45,000  Level Miami Center
12:19PM 24.5331 -81.1253 189° South 430 495 45,000  Level Miami Center
12:20PM 24.4158 -81.1417 187° South 430 495 45,000  Level Miami Center
12:21PM 24.2981 -81.1628 189° South 430 495 45,000  Level Miami Center
12:22PM 24.1847 -81.1861 191° South 430 495 45,000  Level Miami Center
12:23PM 24.0672 -81.2028 187° South 430 495 45,000  Level Miami Center
12:25PM 23.9003 -81.2405 192° South  Level FlightAware Approximate
12:32PM 23.1425 -81.4203 192° South  Level FlightAware Approximate
12:33PM 23.0342 -81.4459 192° South  Level FlightAware Approximate
12:34PM 22.9277 -81.4786 196° South  Level FlightAware Approximate
12:35PM 22.8214 -81.5126 196° South  Level FlightAware Approximate
12:36PM 22.7151 -81.5466 196° South  Level FlightAware Approximate
12:37PM 22.6089 -81.5805 196° South  Level FlightAware Approximate
12:38PM 22.5027 -81.6146 197° South  Level FlightAware Approximate
12:39PM 22.3965 -81.6488 197° South  Level FlightAware Approximate
12:40PM 22.2902 -81.6828 197° South  Level FlightAware Approximate
12:41PM 22.1840 -81.7169 197° South  Level FlightAware Approximate
12:42PM 22.0778 -81.7508 197° South  Level FlightAware Approximate
12:43PM 21.9716 -81.7847 196° South  Level FlightAware Approximate
12:44PM 21.8653 -81.8186 196° South  Level FlightAware Approximate
12:45PM 21.7591 -81.8526 198° South  Level FlightAware Approximate
12:46PM 21.6536 -81.8888 198° South  Level FlightAware Approximate
12:47PM 21.5480 -81.9250 198° South  Level FlightAware Approximate
12:48PM 21.4424 -81.9612 198° South  Level FlightAware Approximate
12:49PM 21.3369 -81.9973 198° South  Level FlightAware Approximate
12:50PM 21.2313 -82.0333 198° South  Level FlightAware Approximate
12:51PM 21.1257 -82.0692 197° South  Level FlightAware Approximate
12:52PM 21.0197 -82.1036 197° South  Level FlightAware Approximate
12:53PM 20.9136 -82.1379 197° South  Level FlightAware Approximate
12:54PM 20.8076 -82.1723 197° South  Level FlightAware Approximate
12:55PM 20.7015 -82.2065 197° South  Level FlightAware Approximate
12:56PM 20.5955 -82.2408 197° South  Level FlightAware Approximate
12:57PM 20.4894 -82.2749 197° South  Level FlightAware Approximate
12:58PM 20.3833 -82.3091 197° South  Level FlightAware Approximate
12:59PM 20.2773 -82.3431 197° South  Level FlightAware Approximate
01:00PM 20.1712 -82.3772 197° South  Level FlightAware Approximate
01:01PM 20.0639 -82.4017 210° Southwest  Level FlightAware Approximate
01:02PM 19.9678 -82.4602 210° Southwest  Level FlightAware Approximate
01:03PM 19.8716 -82.5187 210° Southwest  Level FlightAware Approximate
01:04PM 19.7754 -82.5771 210° Southwest  Level FlightAware Approximate
01:05PM 19.6792 -82.6354 210° Southwest  Level FlightAware Approximate
01:06PM 19.5827 -82.6932 208° Southwest  Level FlightAware Approximate
01:07PM 19.4851 -82.7489 208° Southwest  Level FlightAware Approximate
01:08PM 19.3875 -82.8045 208° Southwest  Level FlightAware Approximate
01:09PM 19.2899 -82.8600 208° Southwest  Level FlightAware Approximate
01:10PM 19.1923 -82.9155 208° Southwest  Level FlightAware Approximate
01:11PM 19.0946 -82.9709 208° Southwest  Level FlightAware Approximate
01:12PM 18.9970 -83.0263 208° Southwest  Level FlightAware Approximate
01:13PM 18.8993 -83.0816 208° Southwest  Level FlightAware Approximate
01:14PM 18.8021 -83.1378 209° Southwest  Level FlightAware Approximate
01:15PM 18.7052 -83.1944 209° Southwest  Level FlightAware Approximate
01:16PM 18.6082 -83.2510 209° Southwest  Level FlightAware Approximate
01:17PM 18.5112 -83.3075 209° Southwest  Level FlightAware Approximate
01:18PM 18.4143 -83.3640 209° Southwest  Level FlightAware Approximate
01:19PM 18.3172 -83.4203 209° Southwest  Level FlightAware Approximate
01:20PM 18.2202 -83.4767 209° Southwest  Level FlightAware Approximate
01:21PM 18.1232 -83.5329 209° Southwest  Level FlightAware Approximate
01:22PM 18.0261 -83.5891 209° Southwest  Level FlightAware Approximate
01:23PM 17.9291 -83.6453 209° Southwest  Level FlightAware Approximate
01:24PM 17.8320 -83.7013 209° Southwest  Level FlightAware Approximate
01:25PM 17.7349 -83.7574 209° Southwest  Level FlightAware Approximate
01:26PM 17.6378 -83.8133 209° Southwest  Level FlightAware Approximate
01:27PM 17.5406 -83.8692 209° Southwest  Level FlightAware Approximate
01:28PM 17.4435 -83.9250 209° Southwest  Level FlightAware Approximate
01:29PM 17.3433 -83.9741 202° Southwest  Level FlightAware Approximate
01:30PM 17.2406 -84.0176 202° Southwest  Level FlightAware Approximate
01:31PM 17.1379 -84.0611 202° Southwest  Level FlightAware Approximate
01:32PM 17.0352 -84.1046 202° Southwest  Level FlightAware Approximate
01:33PM 16.9324 -84.1479 202° Southwest  Level FlightAware Approximate
01:34PM 16.8297 -84.1913 202° Southwest  Level FlightAware Approximate
01:35PM 16.7270 -84.2346 202° Southwest  Level FlightAware Approximate
01:36PM 16.6242 -84.2778 202° Southwest  Level FlightAware Approximate
01:37PM 16.5215 -84.3210 202° Southwest  Level FlightAware Approximate
01:38PM 16.4187 -84.3642 202° Southwest  Level FlightAware Approximate
01:39PM 16.3159 -84.4073 202° Southwest  Level FlightAware Approximate
01:40PM 16.2132 -84.4505 202° Southwest  Level FlightAware Approximate
01:41PM 16.1104 -84.4936 202° Southwest  Level FlightAware Approximate
01:42PM 16.0076 -84.5366 202° Southwest  Level FlightAware Approximate
01:43PM 15.9048 -84.5797 202° Southwest  Level FlightAware Approximate
01:44PM 15.8020 -84.6226 202° Southwest  Level FlightAware Approximate
01:45PM 15.6993 -84.6656 202° Southwest  Level FlightAware Approximate
01:46PM 15.5965 -84.7087 203° Southwest  Level FlightAware Approximate
01:47PM 15.4942 -84.7527 202° Southwest  Level FlightAware Approximate
01:48PM 15.3918 -84.7966 202° Southwest  Level FlightAware Approximate
01:49PM 15.2894 -84.8405 202° Southwest  Level FlightAware Approximate
01:50PM 15.1870 -84.8844 202° Southwest  Level FlightAware Approximate
01:51PM 15.0846 -84.9282 202° Southwest  Level FlightAware Approximate
01:52PM 14.9822 -84.9720 202° Southwest  Level FlightAware Approximate
01:53PM 14.8799 -85.0158 203° Southwest  Level FlightAware Approximate
01:54PM 14.7774 -85.0594 202° Southwest  Level FlightAware Approximate
01:55PM 14.6746 -85.1020 202° Southwest  Level FlightAware Approximate
01:56PM 14.5717 -85.1445 202° Southwest  Level FlightAware Approximate
01:57PM 14.4688 -85.1871 202° Southwest  Level FlightAware Approximate
01:58PM 14.3660 -85.2296 202° Southwest  Level FlightAware Approximate
01:59PM 14.2631 -85.2720 202° Southwest  Level FlightAware Approximate
02:00PM 14.1602 -85.3144 202° Southwest  Level FlightAware Approximate
02:01PM 14.0573 -85.3568 202° Southwest  Level FlightAware Approximate
02:02PM 13.9546 -85.3995 202° Southwest  Level FlightAware Approximate
02:03PM 13.8519 -85.4422 202° Southwest  Level FlightAware Approximate
02:04PM 13.7491 -85.4849 202° Southwest  Level FlightAware Approximate
02:05PM 13.6464 -85.5276 202° Southwest  Level FlightAware Approximate
02:06PM 13.5437 -85.5703 202° Southwest  Level FlightAware Approximate
02:07PM 13.4409 -85.6129 202° Southwest  Level FlightAware Approximate
02:08PM 13.3382 -85.6555 202° Southwest  Level FlightAware Approximate
02:09PM 13.2354 -85.6980 202° Southwest  Level FlightAware Approximate
02:10PM 13.1332 -85.7418 206° Southwest  Level FlightAware Approximate
02:11PM 13.0328 -85.7898 200° South  Level FlightAware Approximate
02:12PM 12.9288 -85.8288 200° South  Level FlightAware Approximate
02:13PM 12.8287 -85.8773 206° Southwest  Level FlightAware Approximate
02:14PM 12.7281 -85.9247 200° South  Level FlightAware Approximate
02:15PM 12.6236 -85.9626 200° South  Level FlightAware Approximate
02:16PM 12.5200 -86.0026 202° Southwest  Level FlightAware Approximate
02:17PM 12.4172 -86.0449 202° Southwest  Level FlightAware Approximate
02:18PM 12.3144 -86.0872 202° Southwest  Level FlightAware Approximate
02:19PM 12.2138 -86.1345 201° Southwest  Level FlightAware Approximate
02:20PM 12.1101 -86.1589 162° South  Level FlightAware Approximate
02:21PM 12.0048 -86.1238 162° South  Level FlightAware Approximate
02:22PM 11.9031 -86.0792 155° Southeast  Level FlightAware Approximate
02:23PM 11.8023 -86.0322 155° Southeast  Level FlightAware Approximate
02:24PM 11.7010 -85.9865 158° South  Level FlightAware Approximate
02:25PM 11.5984 -85.9437 158° South  Level FlightAware Approximate
02:26PM 11.4958 -85.9010 158° South  Level FlightAware Approximate
02:27PM 11.3933 -85.8583 158° South  Level FlightAware Approximate
02:28PM 11.2901 -85.8171 160° South  Level FlightAware Approximate
02:29PM 11.1852 -85.7833 180° South  Level FlightAware Approximate
02:30PM 11.0813 -85.7477 158° South  Level FlightAware Approximate
02:31PM 10.9787 -85.7050 158° South  Level FlightAware Approximate
02:32PM 10.8771 -85.6602 156° South  Level FlightAware Approximate
02:33PM 10.7760 -85.6142 162° South  Level FlightAware Approximate
02:34PM 10.6742 -85.5704 154° Southeast  Level FlightAware Approximate
02:35PM 10.5933 -85.5444 159° South  Level Estimated
02:36PM 10.5933 -85.5444 159° South  Level Estimated
02:37PM 10.5933 -85.5444 159° South  Level Estimated
02:38PM 10.5933 -85.5444 159° South  Level Estimated
02:39PM 10.5933 -85.5444 159° South  Level Estimated
02:40PM 10.5933 -85.5444 159° South  Level Estimated
02:41PM 10.5933 -85.5444 159° South  Level Estimated
02:42PM 10.5933 -85.5444 159° South  Level Estimated
02:43PM 10.5933 -85.5444 159° South  Level Estimated
02:44PM 10.5933 -85.5444 159° South  Level Estimated
02:45PM 10.5933 -85.5444 159° South  Level Estimated
02:46PM 10.5933 -85.5444 159° South  Level Estimated
02:47PM 10.5933 -85.5444 159° South  Level Estimated
02:48PM 10.5933 -85.5444 159° South  Level Estimated